createdAt,value
2019-06-07T00:01:32.898Z,81.64
2019-06-07T00:04:03.325Z,82.70
2019-06-07T00:06:34.118Z,82.97
2019-06-07T00:09:08.138Z,82.65
2019-06-07T00:11:37.202Z,82.69
2019-06-07T00:14:08.626Z,83.02
2019-06-07T00:16:39.453Z,82.54
2019-06-07T00:19:11.967Z,82.54
2019-06-07T00:22:13.578Z,82.37
2019-06-07T00:24:16.228Z,82.08
2019-06-07T00:26:57.619Z,81.90
2019-06-07T00:29:21.763Z,82.49
2019-06-07T00:31:51.168Z,84.91
2019-06-07T00:34:22.926Z,86.33
2019-06-07T00:36:54.513Z,87.54
2019-06-07T00:39:26.135Z,87.93
2019-06-07T00:41:56.945Z,86.54
2019-06-07T00:44:27.456Z,86.65
2019-06-07T00:46:57.773Z,86.88
2019-06-07T00:49:40.390Z,87.19
2019-06-07T00:52:01.419Z,85.51
2019-06-07T00:54:32.092Z,87.47
2019-06-07T00:57:02.402Z,87.53
2019-06-07T00:59:32.710Z,88.16
2019-06-07T01:02:03.530Z,89.26
2019-06-07T01:04:35.546Z,88.57
2019-06-07T01:07:06.183Z,87.58
2019-06-07T01:09:37.944Z,87.04
2019-06-07T01:12:08.381Z,86.99
2019-06-07T01:14:38.789Z,86.52
2019-06-07T01:17:39.220Z,86.21
2019-06-07T01:19:58.065Z,86.04
2019-06-07T01:22:29.701Z,85.81
2019-06-07T01:25:00.009Z,85.88
2019-06-07T01:27:30.324Z,85.77
2019-06-07T01:30:01.072Z,85.91
2019-06-07T01:32:33.177Z,85.75
2019-06-07T01:35:03.478Z,84.51
2019-06-07T01:37:35.274Z,84.96
2019-06-07T01:40:06.528Z,86.54
2019-06-07T01:42:36.818Z,86.25
2019-06-07T01:45:08.058Z,86.06
2019-06-07T01:47:38.714Z,86.23
2019-06-07T01:50:09.765Z,86.59
2019-06-07T01:52:40.184Z,85.79
2019-06-07T01:55:10.846Z,86.26
2019-06-07T01:57:47.958Z,87.10
2019-06-07T02:00:15.623Z,86.82
2019-06-07T02:02:45.911Z,87.98
2019-06-07T02:05:19.144Z,87.89
2019-06-07T02:07:48.850Z,87.85
2019-06-07T02:10:22.320Z,87.66
2019-06-07T02:12:51.728Z,87.28
2019-06-07T02:15:25.044Z,86.66
2019-06-07T02:17:54.437Z,85.72
2019-06-07T02:20:27.235Z,85.72
2019-06-07T02:22:57.138Z,85.99
2019-06-07T02:25:41.949Z,85.78
2019-06-07T02:28:25.942Z,85.32
2019-06-07T02:30:47.555Z,85.25
2019-06-07T02:33:04.124Z,85.03
2019-06-07T02:35:40.360Z,85.60
2019-06-07T02:38:06.894Z,85.60
2019-06-07T02:40:37.712Z,85.74
2019-06-07T02:43:08.441Z,85.51
2019-06-07T02:45:43.455Z,85.72
2019-06-07T02:48:10.949Z,84.79
2019-06-07T02:50:42.045Z,85.12
2019-06-07T02:53:12.554Z,85.32
2019-06-07T02:56:32.845Z,85.14
2019-06-07T02:58:15.222Z,85.38
2019-06-07T03:01:07.063Z,85.83
2019-06-07T03:03:22.357Z,85.18
2019-06-07T03:05:52.624Z,86.41
2019-06-07T03:08:22.944Z,91.05
2019-06-07T03:10:53.531Z,91.71
2019-06-07T03:13:24.200Z,92.54
2019-06-07T03:15:56.449Z,91.23
2019-06-07T03:18:45.117Z,91.16
2019-06-07T03:21:19.637Z,92.02
2019-06-07T03:23:51.471Z,94.05
2019-06-07T03:26:23.953Z,93.20
2019-06-07T03:28:55.897Z,93.07
2019-06-07T03:31:28.509Z,92.31
2019-06-07T03:33:59.131Z,93.16
2019-06-07T03:36:29.692Z,91.92
2019-06-07T03:39:01.281Z,91.79
2019-06-07T03:41:42.007Z,91.61
2019-06-07T03:44:05.047Z,91.07
2019-06-07T03:46:39.033Z,90.80
2019-06-07T03:49:09.257Z,90.56
2019-06-07T03:51:40.937Z,90.35
2019-06-07T03:54:11.699Z,90.16
2019-06-07T03:56:42.353Z,89.87
2019-06-07T03:59:12.638Z,89.49
2019-06-07T04:01:42.944Z,89.62
2019-06-07T04:04:14.102Z,89.06
2019-06-07T04:06:44.379Z,88.83
2019-06-07T04:09:14.665Z,88.13
2019-06-07T04:11:45.377Z,85.11
2019-06-07T04:14:15.932Z,84.93
2019-06-07T04:16:46.321Z,84.41
2019-06-07T04:19:16.972Z,84.41
2019-06-07T04:21:47.667Z,85.06
2019-06-07T04:24:17.964Z,85.59
2019-06-07T04:26:48.574Z,85.59
2019-06-07T04:29:59.992Z,85.37
2019-06-07T04:31:52.124Z,85.37
2019-06-07T04:34:22.561Z,85.03
2019-06-07T04:36:59.206Z,84.34
2019-06-07T04:39:26.619Z,83.37
2019-06-07T04:41:57.647Z,82.54
2019-06-07T04:44:28.883Z,82.16
2019-06-07T04:47:02.468Z,82.16
2019-06-07T04:49:38.106Z,81.61
2019-06-07T04:52:06.841Z,80.13
2019-06-07T04:54:38.546Z,80.13
2019-06-07T04:57:09.703Z,77.92
2019-06-07T05:00:10.996Z,77.92
2019-06-07T05:02:12.028Z,77.30
2019-06-07T05:04:44.017Z,76.59
2019-06-07T05:07:14.428Z,76.14
2019-06-07T05:09:44.802Z,76.61
2019-06-07T05:12:15.148Z,75.10
2019-06-07T05:14:45.532Z,75.69
2019-06-07T05:17:16.270Z,76.12
2019-06-07T05:19:46.688Z,76.73
2019-06-07T05:22:16.282Z,76.73
2019-06-07T05:24:47.084Z,76.43
2019-06-07T05:27:17.351Z,76.06
2019-06-07T05:30:08.715Z,76.02
2019-06-07T05:32:20.521Z,75.23
2019-06-07T05:34:50.873Z,74.27
2019-06-07T05:37:21.223Z,72.86
2019-06-07T05:39:51.856Z,72.86
2019-06-07T05:42:22.158Z,72.20
2019-06-07T05:44:52.861Z,71.61
2019-06-07T05:47:23.147Z,71.12
2019-06-07T05:49:53.801Z,70.52
2019-06-07T05:52:24.564Z,70.12
2019-06-07T05:54:54.918Z,69.81
2019-06-07T05:57:25.194Z,69.22
2019-06-07T05:59:55.868Z,67.83
2019-06-07T06:02:26.362Z,67.26
2019-06-07T06:04:56.796Z,66.39
2019-06-07T06:07:27.100Z,65.43
2019-06-07T06:09:57.738Z,65.12
2019-06-07T06:12:35.538Z,64.40
2019-06-07T06:15:00.274Z,64.02
2019-06-07T06:17:30.677Z,64.48
2019-06-07T06:20:01.381Z,63.53
2019-06-07T06:22:33.157Z,63.26
2019-06-07T06:30:10.205Z,63.98
2019-06-07T06:32:47.203Z,63.79
2019-06-07T06:35:12.699Z,64.25
2019-06-07T06:37:47.173Z,63.72
2019-06-07T06:40:16.654Z,63.62
2019-06-07T06:42:50.077Z,63.94
2019-06-07T06:45:21.107Z,63.58
2019-06-07T06:47:51.785Z,63.28
2019-06-07T06:50:22.670Z,63.01
2019-06-07T06:52:54.633Z,61.76
2019-06-07T06:55:25.171Z,61.63
2019-06-07T06:57:56.060Z,60.27
2019-06-07T07:01:05.892Z,60.68
2019-06-07T07:06:24.207Z,59.27
2019-06-07T07:08:31.552Z,59.47
2019-06-07T07:11:01.835Z,59.30
2019-06-07T07:13:32.573Z,59.51
2019-06-07T07:16:03.066Z,59.76
2019-06-07T07:18:33.808Z,59.44
2019-06-07T07:21:04.093Z,59.39
2019-06-07T07:23:34.378Z,59.60
2019-06-07T07:26:04.749Z,58.99
2019-06-07T07:28:35.067Z,59.33
2019-06-07T07:31:05.351Z,57.83
2019-06-07T07:36:23.201Z,56.97
2019-06-07T07:38:39.790Z,57.47
2019-06-07T07:41:15.591Z,57.34
2019-06-07T07:43:42.090Z,54.82
2019-06-07T07:46:29.613Z,54.96
2019-06-07T07:48:45.943Z,56.38
2019-06-07T07:51:16.343Z,53.39
2019-06-07T07:53:53.183Z,53.73
2019-06-07T07:56:18.800Z,52.66
2019-06-07T07:58:51.175Z,52.28
2019-06-07T08:01:21.169Z,50.89
2019-06-07T08:03:55.844Z,50.86
2019-06-07T08:06:23.446Z,50.85
2019-06-07T08:08:56.681Z,50.46
2019-06-07T08:11:25.772Z,50.59
2019-06-07T08:13:57.631Z,51.40
2019-06-07T08:16:28.212Z,50.65
2019-06-07T08:19:04.034Z,51.22
2019-06-07T08:21:30.678Z,49.35
2019-06-07T08:24:04.651Z,49.56
2019-06-07T08:26:32.949Z,50.51
2019-06-07T08:29:03.533Z,51.00
2019-06-07T08:31:33.858Z,50.37
2019-06-07T08:34:04.372Z,50.12
2019-06-07T08:36:41.764Z,49.35
2019-06-07T08:39:08.643Z,49.40
2019-06-07T08:41:53.508Z,48.46
2019-06-07T08:44:23.363Z,49.17
2019-06-07T08:46:43.312Z,49.53
2019-06-07T08:49:14.867Z,48.63
2019-06-07T08:51:45.155Z,48.18
2019-06-07T08:54:22.721Z,47.77
2019-06-07T08:56:47.467Z,46.45
2019-06-07T08:59:17.828Z,47.09
2019-06-07T09:01:48.124Z,47.60
2019-06-07T09:04:18.684Z,47.29
2019-06-07T09:07:18.448Z,45.69
2019-06-07T09:09:21.397Z,45.84
2019-06-07T09:11:52.452Z,45.44
2019-06-07T09:14:23.729Z,43.89
2019-06-07T09:16:58.797Z,41.62
2019-06-07T09:19:26.129Z,41.58
2019-06-07T09:21:57.563Z,40.80
2019-06-07T09:24:28.612Z,39.59
2019-06-07T09:27:02.376Z,39.92
2019-06-07T09:29:31.437Z,40.42
2019-06-07T09:32:05.879Z,40.73
2019-06-07T09:34:33.897Z,38.47
2019-06-07T09:37:54.787Z,38.65
2019-06-07T09:39:38.387Z,36.79
2019-06-07T09:42:12.247Z,37.10
2019-06-07T09:44:40.875Z,35.31
2019-06-07T09:47:29.862Z,34.59
2019-06-07T09:49:43.225Z,34.05
2019-06-07T09:52:13.531Z,33.99
2019-06-07T09:55:06.108Z,35.38
2019-06-07T09:57:17.501Z,33.69
2019-06-07T09:59:51.277Z,33.22
2019-06-07T10:02:21.736Z,29.73
2019-06-07T10:04:52.031Z,29.30
2019-06-07T10:07:31.368Z,28.47
2019-06-07T10:10:15.802Z,28.36
2019-06-07T10:12:26.836Z,27.08
2019-06-07T10:14:58.601Z,26.72
2019-06-07T10:17:28.980Z,26.14
2019-06-07T10:20:00.465Z,25.69
2019-06-07T10:22:31.336Z,25.17
2019-06-07T10:25:02.020Z,26.06
2019-06-07T10:27:32.694Z,26.01
2019-06-07T10:30:04.060Z,26.44
2019-06-07T10:32:34.487Z,26.56
2019-06-07T10:35:05.523Z,24.58
2019-06-07T10:37:36.990Z,24.87
2019-06-07T10:40:09.103Z,25.24
2019-06-07T10:42:39.631Z,23.81
2019-06-07T10:45:11.983Z,24.02
2019-06-07T10:47:42.371Z,24.13
2019-06-07T10:50:13.158Z,23.80
2019-06-07T10:52:43.553Z,24.18
2019-06-07T10:55:14.155Z,23.62
2019-06-07T10:57:44.487Z,22.62
2019-06-07T11:00:16.845Z,21.33
2019-06-07T11:02:47.142Z,21.94
2019-06-07T11:05:17.895Z,21.84
2019-06-07T11:07:48.159Z,22.32
2019-06-07T11:10:20.195Z,22.43
2019-06-07T11:12:50.509Z,22.01
2019-06-07T11:15:20.994Z,21.56
2019-06-07T11:17:51.387Z,21.42
2019-06-07T11:20:22.795Z,20.59
2019-06-07T11:22:53.254Z,20.49
2019-06-07T11:25:23.653Z,21.21
2019-06-07T11:27:53.964Z,21.67
2019-06-07T11:30:24.275Z,21.06
2019-06-07T11:32:54.584Z,20.92
2019-06-07T11:35:25.220Z,19.12
2019-06-07T11:37:55.700Z,19.91
2019-06-07T11:40:34.894Z,19.35
2019-06-07T11:42:58.567Z,21.26
2019-06-07T11:45:33.936Z,23.05
2019-06-07T11:48:04.554Z,21.52
2019-06-07T11:50:34.821Z,22.03
2019-06-07T11:53:06.566Z,23.80
2019-06-07T11:55:37.257Z,22.58
2019-06-07T11:58:11.685Z,25.56
2019-06-07T12:00:39.889Z,22.65
2019-06-07T12:03:11.570Z,22.36
2019-06-07T12:05:42.300Z,22.68
2019-06-07T12:08:13.999Z,23.89
2019-06-07T12:10:44.420Z,22.86
2019-06-07T12:13:15.501Z,21.55
2019-06-07T12:15:49.141Z,22.29
2019-06-07T12:18:19.769Z,21.98
2019-06-07T12:20:50.157Z,21.90
2019-06-07T12:23:20.786Z,22.12
2019-06-07T12:25:51.186Z,21.17
2019-06-07T12:28:21.446Z,20.70
2019-06-07T12:30:55.090Z,20.68
2019-06-07T12:33:24.215Z,19.76
2019-06-07T12:35:54.825Z,18.94
2019-06-07T12:38:25.352Z,18.27
2019-06-07T12:40:57.907Z,17.90
2019-06-07T12:43:28.438Z,18.09
2019-06-07T12:45:58.916Z,17.29
2019-06-07T12:48:29.584Z,17.05
2019-06-07T12:50:59.893Z,16.37
2019-06-07T12:53:30.168Z,15.92
2019-06-07T12:56:00.948Z,15.50
2019-06-07T12:58:36.265Z,15.51
2019-06-07T13:01:04.243Z,15.88
2019-06-07T13:03:35.039Z,16.28
2019-06-07T13:06:05.706Z,17.08
2019-06-07T13:08:36.005Z,16.92
2019-06-07T13:11:16.175Z,18.80
2019-06-07T13:13:38.795Z,17.31
2019-06-07T13:16:09.591Z,15.60
2019-06-07T13:18:40.007Z,16.73
2019-06-07T13:21:10.275Z,17.53
2019-06-07T13:23:44.263Z,18.86
2019-06-07T13:26:13.149Z,18.44
2019-06-07T13:28:43.413Z,17.82
2019-06-07T13:31:14.094Z,16.10
2019-06-07T13:33:44.924Z,17.38
2019-06-07T13:36:16.169Z,18.11
2019-06-07T13:38:46.563Z,16.94
2019-06-07T13:41:30.214Z,17.60
2019-06-07T13:43:51.587Z,16.87
2019-06-07T13:46:23.021Z,17.93
2019-06-07T13:48:53.599Z,17.63
2019-06-07T13:51:25.150Z,18.51
2019-06-07T13:53:56.455Z,17.39
2019-06-07T13:56:28.247Z,16.98
2019-06-07T13:58:58.699Z,17.56
2019-06-07T14:01:30.466Z,18.12
2019-06-07T14:04:00.765Z,16.54
2019-06-07T14:06:32.201Z,15.99
2019-06-07T14:09:02.881Z,15.71
2019-06-07T14:11:49.589Z,16.33
2019-06-07T14:14:06.571Z,16.68
2019-06-07T14:16:37.332Z,15.84
2019-06-07T14:19:08.784Z,15.52
2019-06-07T14:21:39.447Z,15.50
2019-06-07T14:24:09.712Z,15.21
2019-06-07T14:26:42.957Z,15.15
2019-06-07T14:29:13.527Z,15.34
2019-06-07T14:31:43.838Z,14.65
2019-06-07T14:34:14.128Z,15.23
2019-06-07T14:36:45.002Z,14.95
2019-06-07T14:39:15.673Z,14.64
2019-06-07T14:41:46.184Z,13.96
2019-06-07T14:44:16.776Z,14.86
2019-06-07T14:46:47.535Z,14.97
2019-06-07T14:49:17.887Z,15.34
2019-06-07T14:51:48.219Z,17.09
2019-06-07T14:54:18.492Z,17.19
2019-06-07T14:56:49.170Z,18.40
2019-06-07T14:59:19.585Z,19.25
2019-06-07T15:01:49.948Z,19.95
2019-06-07T15:04:20.650Z,18.93
2019-06-07T15:06:51.358Z,18.53
2019-06-07T15:09:21.619Z,19.89
2019-06-07T15:11:52.037Z,19.92
2019-06-07T15:14:22.388Z,20.46
2019-06-07T15:16:52.901Z,21.86
2019-06-07T15:19:24.249Z,21.60
2019-06-07T15:21:54.861Z,21.70
2019-06-07T15:24:25.536Z,22.89
2019-06-07T15:26:56.389Z,22.06
2019-06-07T15:29:27.484Z,18.73
2019-06-07T15:31:58.232Z,18.57
2019-06-07T15:34:30.429Z,18.71
2019-06-07T15:37:01.005Z,19.72
2019-06-07T15:39:32.577Z,19.14
2019-06-07T15:42:03.237Z,18.34
2019-06-07T15:44:33.665Z,19.26
2019-06-07T15:47:04.011Z,19.67
2019-06-07T15:49:36.070Z,20.58
2019-06-07T15:52:06.467Z,20.75
2019-06-07T15:54:37.112Z,23.36
2019-06-07T15:57:07.402Z,23.91
2019-06-07T15:59:37.760Z,22.89
2019-06-07T16:02:08.521Z,23.54
2019-06-07T16:04:39.765Z,23.62
2019-06-07T16:07:10.109Z,24.12
2019-06-07T16:09:40.765Z,24.69
2019-06-07T16:12:11.166Z,26.91
2019-06-07T16:14:41.482Z,25.35
2019-06-07T16:17:12.080Z,24.57
2019-06-07T16:19:45.998Z,24.63
2019-06-07T16:22:14.666Z,24.77
2019-06-07T16:24:46.330Z,24.35
2019-06-07T16:27:16.600Z,25.89
2019-06-07T16:29:47.007Z,26.22
2019-06-07T16:32:17.298Z,25.78
2019-06-07T16:34:47.603Z,26.51
2019-06-07T16:37:18.317Z,26.75
2019-06-07T16:39:48.821Z,27.06
2019-06-07T16:42:19.083Z,28.04
2019-06-07T16:44:49.816Z,28.87
2019-06-07T16:47:20.586Z,28.83
2019-06-07T16:49:50.952Z,28.98
2019-06-07T16:52:21.685Z,28.91
2019-06-07T16:54:52.246Z,28.83
2019-06-07T16:57:22.590Z,28.46
2019-06-07T16:59:53.048Z,27.54
2019-06-07T17:02:23.805Z,26.95
2019-06-07T17:04:54.073Z,26.10
2019-06-07T17:07:24.403Z,25.36
2019-06-07T17:09:55.186Z,25.22
2019-06-07T17:12:25.452Z,25.20
2019-06-07T17:14:55.794Z,25.16
2019-06-07T17:17:26.604Z,25.21
2019-06-07T17:19:58.215Z,25.04
2019-06-07T17:22:28.512Z,24.86
2019-06-07T17:24:58.916Z,24.68
2019-06-07T17:27:29.582Z,24.40
2019-06-07T17:30:00.012Z,24.28
2019-06-07T17:32:30.325Z,24.92
2019-06-07T17:35:00.626Z,26.01
2019-06-07T17:37:31.340Z,26.77
2019-06-07T17:40:01.822Z,27.60
2019-06-07T17:42:32.135Z,30.95
2019-06-07T17:45:04.177Z,32.26
2019-06-07T17:47:34.757Z,32.04
2019-06-07T17:50:05.962Z,32.23
2019-06-07T17:52:36.476Z,34.63
2019-06-07T17:55:07.213Z,37.67
2019-06-07T17:57:37.512Z,39.71
2019-06-07T18:00:27.804Z,42.35
2019-06-07T18:02:42.385Z,43.85
2019-06-07T18:05:13.701Z,44.00
2019-06-07T18:07:47.741Z,44.24
2019-06-07T18:10:34.449Z,45.40
2019-06-07T18:13:05.417Z,45.94
2019-06-07T18:15:41.082Z,47.13
2019-06-07T18:18:12.062Z,47.93
2019-06-07T18:23:12.021Z,49.40
2019-06-07T18:25:42.334Z,49.19
2019-06-07T18:28:14.035Z,50.10
2019-06-07T18:30:44.711Z,51.76
2019-06-07T18:33:15.275Z,52.31
2019-06-07T18:35:46.970Z,51.99
2019-06-07T18:38:17.521Z,53.90
2019-06-07T18:40:49.009Z,54.16
2019-06-07T18:43:19.901Z,54.61
2019-06-07T18:45:51.395Z,54.86
2019-06-07T18:48:21.920Z,54.31
2019-06-07T18:50:52.664Z,54.05
2019-06-07T18:53:23.028Z,53.54
2019-06-07T18:55:54.025Z,54.63
2019-06-07T18:58:25.030Z,56.15
2019-06-07T19:00:55.692Z,56.72
2019-06-07T19:03:25.965Z,56.88
2019-06-07T19:05:56.602Z,55.81
2019-06-07T19:08:26.892Z,55.88
2019-06-07T19:10:57.509Z,56.24
2019-06-07T19:13:28.022Z,55.71
2019-06-07T19:15:59.632Z,57.55
2019-06-07T19:18:30.093Z,57.28
2019-06-07T19:21:00.701Z,57.00
2019-06-07T19:23:31.083Z,57.75
2019-06-07T19:26:01.705Z,57.17
2019-06-07T19:28:32.410Z,57.30
2019-06-07T19:31:02.691Z,56.21
2019-06-07T19:33:46.245Z,57.53
2019-06-07T19:36:05.711Z,57.69
2019-06-07T19:38:36.017Z,58.52
2019-06-07T19:41:17.992Z,58.54
2019-06-07T19:43:38.679Z,58.95
2019-06-07T19:46:09.086Z,58.41
2019-06-07T19:48:39.467Z,58.81
2019-06-07T19:51:09.836Z,58.73
2019-06-07T19:53:40.452Z,59.67
2019-06-07T19:56:11.115Z,60.26
2019-06-07T19:58:41.430Z,60.11
2019-06-07T20:01:11.886Z,59.69
2019-06-07T20:03:42.462Z,59.48
2019-06-07T20:06:12.727Z,58.95
2019-06-07T20:08:43.048Z,59.27
2019-06-07T20:11:13.632Z,60.59
2019-06-07T20:13:44.046Z,60.78
2019-06-07T20:16:14.777Z,60.43
2019-06-07T20:18:45.047Z,61.72
2019-06-07T20:21:15.357Z,61.43
2019-06-07T20:23:46.027Z,61.54
2019-06-07T20:26:16.418Z,62.20
2019-06-07T20:28:46.772Z,62.17
2019-06-07T20:31:17.543Z,62.17
2019-06-07T20:33:47.886Z,62.37
2019-06-07T20:36:18.225Z,62.08
2019-06-07T20:38:48.892Z,61.73
2019-06-07T20:41:19.620Z,62.28
2019-06-07T20:43:49.969Z,62.32
2019-06-07T20:46:20.242Z,62.09
2019-06-07T20:48:50.544Z,62.87
2019-06-07T20:51:21.219Z,63.03
2019-06-07T20:53:51.881Z,63.06
2019-06-07T20:56:24.564Z,63.43
2019-06-07T20:58:54.622Z,64.26
2019-06-07T21:01:26.329Z,64.86
2019-06-07T21:03:56.635Z,64.78
2019-06-07T21:06:27.313Z,64.82
2019-06-07T21:08:59.254Z,64.88
2019-06-07T21:11:29.648Z,65.41
2019-06-07T21:14:00.055Z,65.61
2019-06-07T21:16:30.408Z,65.76
2019-06-07T21:19:00.756Z,65.96
2019-06-07T21:21:31.032Z,65.99
2019-06-07T21:24:02.545Z,65.49
2019-06-07T21:26:32.896Z,65.09
2019-06-07T21:29:03.491Z,65.36
2019-06-07T21:31:34.031Z,65.28
2019-06-07T21:34:07.658Z,65.65
2019-06-07T21:36:36.747Z,65.61
2019-06-07T21:39:08.428Z,66.00
2019-06-07T21:41:38.812Z,64.93
2019-06-07T21:44:10.359Z,64.60
2019-06-07T21:46:41.843Z,65.00
2019-06-07T21:49:12.848Z,64.16
2019-06-07T21:51:43.681Z,63.53
2019-06-07T21:54:14.887Z,63.37
2019-06-07T21:56:45.370Z,63.24
2019-06-07T21:59:16.083Z,63.46
2019-06-07T22:01:46.840Z,62.71
2019-06-07T22:04:17.107Z,63.54
2019-06-07T22:06:47.842Z,64.10
2019-06-07T22:09:18.491Z,64.59
2019-06-07T22:11:48.779Z,63.66
2019-06-07T22:14:19.164Z,63.88
2019-06-07T22:16:49.774Z,64.42
2019-06-07T22:19:20.081Z,64.36
2019-06-07T22:22:02.151Z,63.75
2019-06-07T22:24:22.816Z,63.17
2019-06-07T22:26:53.495Z,62.78
2019-06-07T22:29:24.214Z,63.39
2019-06-07T22:31:54.483Z,63.99
2019-06-07T22:34:24.957Z,63.96
2019-06-07T22:36:55.682Z,64.60
2019-06-07T22:39:25.996Z,63.59
2019-06-07T22:41:56.317Z,63.77
2019-06-07T22:44:26.772Z,62.64
2019-06-07T22:46:57.068Z,62.94
2019-06-07T22:49:27.381Z,62.48
2019-06-07T22:52:08.312Z,63.45
2019-06-07T22:54:30.229Z,64.09
2019-06-07T22:57:05.726Z,64.13
2019-06-07T22:59:36.047Z,64.47
2019-06-07T23:02:06.340Z,63.82
2019-06-07T23:04:37.088Z,64.30
2019-06-07T23:07:08.734Z,64.71
2019-06-07T23:09:39.159Z,64.84
2019-06-07T23:12:11.040Z,65.35
2019-06-07T23:14:41.431Z,65.24
2019-06-07T23:17:11.769Z,64.65
2019-06-07T23:19:42.391Z,64.61
2019-06-07T23:22:13.798Z,64.85
2019-06-07T23:24:44.196Z,65.28
2019-06-07T23:27:14.525Z,65.10
2019-06-07T23:29:44.803Z,64.73
2019-06-07T23:32:16.712Z,63.93
2019-06-07T23:34:47.231Z,63.78
2019-06-07T23:37:17.523Z,64.04
2019-06-07T23:39:48.276Z,64.29
2019-06-07T23:42:19.743Z,64.65
2019-06-07T23:44:50.092Z,65.37
2019-06-07T23:47:22.344Z,66.35
2019-06-07T23:49:53.142Z,65.70
2019-06-07T23:52:23.433Z,65.34
2019-06-07T23:54:53.881Z,65.46
2019-06-07T23:57:24.175Z,66.25
2019-06-07T23:59:55.849Z,66.28
